Impacts TAF Board
For situational awareness. Not to be used for flight planning purposes.
IDs:

KMEM - Memphis Intl, TN, US

Issued at 0900 UTC 24 Jan 2019
Updated at 1101 UTC 24 Jan 2019
Potential Impact None Slight Moderate High
Time1054Z 24/11Z 24/12Z 24/13Z 24/14Z 24/15Z 24/16Z 24/17Z 24/18Z 24/19Z 24/20Z 24/21Z 24/22Z 24/23Z>>
Type OBS PRVL PRVL PRVL PRVL PRVL PRVL PRVL PRVL PRVL PRVL PRVL PRVL PRVL
VIS 10 >6 >6 >6 >6 >6 >6 >6 >6 >6 >6 >6 >6 >6
CIG -- -- -- -- -- -- -- -- -- -- -- -- -- --
Cover CLR FEW FEW FEW FEW FEW FEW FEW FEW FEW FEW FEW FEW FEW
FltCat VFR VFR VFR VFR VFR VFR VFR VFR VFR VFR VFR VFR VFR VFR
WX -- -- -- -- -- -- -- -- -- -- -- -- -- --
WDir 310 310 310 310 260 260 260 260 260 260 260 260 260 260
WSpd 6 10 10 10 7 7 7 7 7 7 7 7 7 7
WGst -- -- -- -- -- -- -- -- -- -- -- -- -- --
Raw TAF
KMEM 240900Z 2409/2512 31010KT P6SM FEW025
  TEMPO 2409/2410 BKN023
  FM241400 26007KT P6SM FEW250
  FM250300 33010G15KT P6SM SCT035 BKN100
  TEMPO 2504/2508 BKN035
  FM250800 35008KT P6SM SCT035 SCT100


Raw METAR
KMEM 241054Z 31006KT 10SM CLR M03/M06 A3003 RMK AO2 SLP172 T10331061 $
KMEM 240954Z 31006KT 10SM FEW018 M03/M06 A3002 RMK AO2 SLP170 T10331061 $
KMEM 240921Z 31009KT 10SM SCT021 M03/M06 A3003 RMK AO2 T10281061 $
KMEM 240854Z 30011KT 10SM BKN023 M02/M06 A3003 RMK AO2 SLP171 T10221061 51010 $
KMEM 240754Z 31010KT 10SM BKN022 M02/M06 A3002 RMK AO2 SLP169 T10171056 $

METAR Board
Radar Display
Forecast Discussion
For situational awareness. Not to be used for flight planning purposes.